sensor_id;sensor_type;location;lat;lon;timestamp;pressure;altitude;pressure_sealevel;temperature;humidity
49055;BME280;35405;52.344;14.530;2023-07-13T05:03:59;100678.09;;;22.15;50.02
49055;BME280;35405;52.344;14.530;2023-07-13T05:06:25;100681.09;;;22.23;49.90
49055;BME280;35405;52.344;14.530;2023-07-13T05:08:50;100680.41;;;22.19;49.72
49055;BME280;35405;52.344;14.530;2023-07-13T05:11:15;100685.69;;;22.21;49.78
49055;BME280;35405;52.344;14.530;2023-07-13T05:13:40;100688.44;;;22.32;49.64
49055;BME280;35405;52.344;14.530;2023-07-13T05:16:06;100679.41;;;22.47;49.25
49055;BME280;35405;52.344;14.530;2023-07-13T05:18:32;100694.25;;;22.64;48.75
49055;BME280;35405;52.344;14.530;2023-07-13T05:21:02;100691.81;;;22.74;48.62
49055;BME280;35405;52.344;14.530;2023-07-13T05:23:29;100694.72;;;22.84;48.37
49055;BME280;35405;52.344;14.530;2023-07-13T05:25:54;100692.47;;;22.90;47.96
49055;BME280;35405;52.344;14.530;2023-07-13T05:28:20;100696.19;;;22.62;48.10
49055;BME280;35405;52.344;14.530;2023-07-13T05:30:48;100697.66;;;22.54;48.43
49055;BME280;35405;52.344;14.530;2023-07-13T05:33:14;100689.66;;;22.66;48.15
49055;BME280;35405;52.344;14.530;2023-07-13T05:35:39;100693.44;;;22.77;48.09
49055;BME280;35405;52.344;14.530;2023-07-13T05:38:05;100689.34;;;22.58;47.71
49055;BME280;35405;52.344;14.530;2023-07-13T05:40:30;100690.63;;;22.53;47.64
49055;BME280;35405;52.344;14.530;2023-07-13T05:42:55;100697.53;;;22.55;47.35
49055;BME280;35405;52.344;14.530;2023-07-13T05:45:20;100698.34;;;22.70;46.14
49055;BME280;35405;52.344;14.530;2023-07-13T05:47:46;100706.22;;;22.84;45.87
49055;BME280;35405;52.344;14.530;2023-07-13T05:50:11;100700.91;;;22.97;45.51
49055;BME280;35405;52.344;14.530;2023-07-13T05:52:36;100703.38;;;23.13;44.42
49055;BME280;35405;52.344;14.530;2023-07-13T05:55:02;100706.34;;;23.21;43.98
49055;BME280;35405;52.344;14.530;2023-07-13T05:57:28;100699.59;;;23.28;43.14
49055;BME280;35405;52.344;14.530;2023-07-13T05:59:53;100709.06;;;23.45;42.59
49055;BME280;35405;52.344;14.530;2023-07-13T06:02:18;100709.22;;;23.67;42.21
49055;BME280;35405;52.344;14.530;2023-07-13T06:04:43;100704.09;;;23.77;42.18
49055;BME280;35405;52.344;14.530;2023-07-13T06:07:08;100706.81;;;23.88;41.92
49055;BME280;35405;52.344;14.530;2023-07-13T06:09:33;100717.94;;;23.82;40.97
49055;BME280;35405;52.344;14.530;2023-07-13T06:11:59;100714.00;;;23.75;41.22
49055;BME280;35405;52.344;14.530;2023-07-13T06:14:24;100718.00;;;23.93;40.98
49055;BME280;35405;52.344;14.530;2023-07-13T06:16:49;100710.78;;;24.06;41.06
49055;BME280;35405;52.344;14.530;2023-07-13T06:19:15;100716.19;;;24.18;40.85
49055;BME280;35405;52.344;14.530;2023-07-13T06:21:40;100711.19;;;24.13;40.79
49055;BME280;35405;52.344;14.530;2023-07-13T06:24:06;100716.41;;;24.15;40.96
49055;BME280;35405;52.344;14.530;2023-07-13T06:26:31;100719.16;;;24.26;40.76
49055;BME280;35405;52.344;14.530;2023-07-13T06:28:57;100719.34;;;24.23;40.86
49055;BME280;35405;52.344;14.530;2023-07-13T06:31:22;100722.50;;;24.17;40.62
49055;BME280;35405;52.344;14.530;2023-07-13T06:33:47;100717.44;;;24.25;40.55
49055;BME280;35405;52.344;14.530;2023-07-13T06:36:12;100714.53;;;24.28;40.88
49055;BME280;35405;52.344;14.530;2023-07-13T06:38:37;100722.63;;;24.39;40.75
49055;BME280;35405;52.344;14.530;2023-07-13T06:41:03;100719.31;;;24.35;40.83
49055;BME280;35405;52.344;14.530;2023-07-13T06:43:28;100717.28;;;24.39;40.52
49055;BME280;35405;52.344;14.530;2023-07-13T06:45:55;100722.91;;;24.58;40.49
49055;BME280;35405;52.344;14.530;2023-07-13T06:48:20;100715.38;;;24.63;40.28
49055;BME280;35405;52.344;14.530;2023-07-13T06:50:46;100727.06;;;24.62;40.27
49055;BME280;35405;52.344;14.530;2023-07-13T06:53:12;100714.19;;;24.68;40.43
49055;BME280;35405;52.344;14.530;2023-07-13T06:55:37;100720.16;;;24.60;40.28
49055;BME280;35405;52.344;14.530;2023-07-13T06:58:02;100716.88;;;24.68;39.55
49055;BME280;35405;52.344;14.530;2023-07-13T07:00:28;100713.00;;;24.83;39.38
49055;BME280;35405;52.344;14.530;2023-07-13T07:02:53;100718.97;;;24.75;39.38
49055;BME280;35405;52.344;14.530;2023-07-13T07:05:18;100706.41;;;24.87;39.13
49055;BME280;35405;52.344;14.530;2023-07-13T07:07:46;100711.56;;;24.90;38.97
49055;BME280;35405;52.344;14.530;2023-07-13T07:10:11;100713.38;;;25.01;38.90
49055;BME280;35405;52.344;14.530;2023-07-13T07:12:36;100714.63;;;25.08;38.83
49055;BME280;35405;52.344;14.530;2023-07-13T07:15:02;100719.97;;;25.08;39.04
49055;BME280;35405;52.344;14.530;2023-07-13T07:17:27;100725.09;;;25.22;38.83
49055;BME280;35405;52.344;14.530;2023-07-13T07:19:52;100718.53;;;25.04;38.73
49055;BME280;35405;52.344;14.530;2023-07-13T07:22:19;100724.72;;;25.15;39.12
49055;BME280;35405;52.344;14.530;2023-07-13T07:24:44;100719.50;;;25.14;39.12
49055;BME280;35405;52.344;14.530;2023-07-13T07:27:09;100715.97;;;25.25;39.24
49055;BME280;35405;52.344;14.530;2023-07-13T07:29:34;100720.34;;;25.37;39.19
49055;BME280;35405;52.344;14.530;2023-07-13T07:32:00;100716.28;;;25.65;38.78
49055;BME280;35405;52.344;14.530;2023-07-13T07:34:25;100720.44;;;25.69;38.10
49055;BME280;35405;52.344;14.530;2023-07-13T07:36:50;100719.13;;;25.52;38.29
49055;BME280;35405;52.344;14.530;2023-07-13T07:39:15;100728.50;;;25.35;38.54
49055;BME280;35405;52.344;14.530;2023-07-13T07:41:41;100722.78;;;25.29;38.67
49055;BME280;35405;52.344;14.530;2023-07-13T07:44:06;100732.41;;;25.31;38.48
49055;BME280;35405;52.344;14.530;2023-07-13T07:46:34;100733.16;;;25.44;38.60
49055;BME280;35405;52.344;14.530;2023-07-13T07:48:59;100726.19;;;25.42;38.10
49055;BME280;35405;52.344;14.530;2023-07-13T07:51:25;100730.06;;;25.49;37.92
49055;BME280;35405;52.344;14.530;2023-07-13T07:53:50;100718.88;;;25.55;37.97
49055;BME280;35405;52.344;14.530;2023-07-13T07:56:15;100737.75;;;25.54;37.95
49055;BME280;35405;52.344;14.530;2023-07-13T07:58:41;100739.81;;;25.61;38.09
49055;BME280;35405;52.344;14.530;2023-07-13T08:01:06;100724.44;;;25.63;38.29
49055;BME280;35405;52.344;14.530;2023-07-13T08:03:32;100728.34;;;25.82;38.13
49055;BME280;35405;52.344;14.530;2023-07-13T08:05:57;100726.47;;;25.93;37.87
49055;BME280;35405;52.344;14.530;2023-07-13T08:08:23;100732.09;;;26.01;37.88
49055;BME280;35405;52.344;14.530;2023-07-13T08:10:48;100737.53;;;26.11;37.95
49055;BME280;35405;52.344;14.530;2023-07-13T08:13:13;100728.97;;;26.17;37.90
49055;BME280;35405;52.344;14.530;2023-07-13T08:15:39;100725.78;;;26.23;37.35
49055;BME280;35405;52.344;14.530;2023-07-13T08:18:05;100736.66;;;26.22;37.15
49055;BME280;35405;52.344;14.530;2023-07-13T08:20:30;100731.94;;;26.03;37.25
49055;BME280;35405;52.344;14.530;2023-07-13T08:22:55;100734.13;;;26.09;37.32
49055;BME280;35405;52.344;14.530;2023-07-13T08:25:20;100731.09;;;26.02;37.12
49055;BME280;35405;52.344;14.530;2023-07-13T08:27:46;100737.25;;;26.14;36.64
49055;BME280;35405;52.344;14.530;2023-07-13T08:30:12;100735.78;;;26.21;36.51
49055;BME280;35405;52.344;14.530;2023-07-13T08:32:37;100738.34;;;26.23;36.03
49055;BME280;35405;52.344;14.530;2023-07-13T08:35:03;100742.88;;;26.22;36.27
49055;BME280;35405;52.344;14.530;2023-07-13T08:37:28;100734.06;;;26.20;36.74
49055;BME280;35405;52.344;14.530;2023-07-13T08:39:53;100736.72;;;26.32;36.67
49055;BME280;35405;52.344;14.530;2023-07-13T08:42:31;100737.56;;;26.43;36.28
49055;BME280;35405;52.344;14.530;2023-07-13T08:47:44;100726.63;;;26.24;36.02
49055;BME280;35405;52.344;14.530;2023-07-13T08:50:14;100734.28;;;26.28;36.00
49055;BME280;35405;52.344;14.530;2023-07-13T08:52:40;100731.59;;;26.28;35.80
49055;BME280;35405;52.344;14.530;2023-07-13T08:55:16;100737.16;;;26.48;35.78
49055;BME280;35405;52.344;14.530;2023-07-13T08:57:43;100742.34;;;26.81;35.82
49055;BME280;35405;52.344;14.530;2023-07-13T09:00:10;100740.22;;;27.06;35.08
49055;BME280;35405;52.344;14.530;2023-07-13T09:02:48;100734.09;;;27.25;34.73
49055;BME280;35405;52.344;14.530;2023-07-13T09:05:30;100735.47;;;27.19;34.26
49055;BME280;35405;52.344;14.530;2023-07-13T09:10:28;100740.00;;;27.19;33.12
49055;BME280;35405;52.344;14.530;2023-07-13T09:15:40;100738.81;;;27.32;33.21
49055;BME280;35405;52.344;14.530;2023-07-13T09:18:10;100737.31;;;27.19;33.03
49055;BME280;35405;52.344;14.530;2023-07-13T09:20:59;100745.81;;;26.93;33.24
49055;BME280;35405;52.344;14.530;2023-07-13T09:23:23;100746.81;;;26.71;33.38
49055;BME280;35405;52.344;14.530;2023-07-13T09:25:53;100741.81;;;26.46;33.69
49055;BME280;35405;52.344;14.530;2023-07-13T09:28:26;100748.28;;;26.43;33.64
49055;BME280;35405;52.344;14.530;2023-07-13T09:33:26;100742.50;;;27.41;32.39
49055;BME280;35405;52.344;14.530;2023-07-13T09:35:54;100745.41;;;27.59;31.70
49055;BME280;35405;52.344;14.530;2023-07-13T09:38:20;100738.31;;;28.08;31.34
49055;BME280;35405;52.344;14.530;2023-07-13T09:43:19;100746.97;;;28.69;30.13
49055;BME280;35405;52.344;14.530;2023-07-13T09:45:45;100732.66;;;28.69;29.81
49055;BME280;35405;52.344;14.530;2023-07-13T09:48:12;100725.50;;;28.87;29.55
49055;BME280;35405;52.344;14.530;2023-07-13T09:50:41;100728.88;;;29.09;29.64
49055;BME280;35405;52.344;14.530;2023-07-13T09:53:14;100729.50;;;28.83;29.34
49055;BME280;35405;52.344;14.530;2023-07-13T09:55:40;100732.22;;;28.15;29.52
49055;BME280;35405;52.344;14.530;2023-07-13T09:58:13;100748.19;;;27.78;30.31
49055;BME280;35405;52.344;14.530;2023-07-13T10:00:39;100746.19;;;27.40;30.73
49055;BME280;35405;52.344;14.530;2023-07-13T10:03:19;100740.22;;;27.06;31.27
49055;BME280;35405;52.344;14.530;2023-07-13T10:05:46;100741.09;;;27.06;31.31
49055;BME280;35405;52.344;14.530;2023-07-13T10:08:16;100735.94;;;27.64;31.16
49055;BME280;35405;52.344;14.530;2023-07-13T10:10:43;100739.19;;;28.47;30.40
49055;BME280;35405;52.344;14.530;2023-07-13T10:13:55;100727.38;;;28.87;29.74
49055;BME280;35405;52.344;14.530;2023-07-13T10:15:55;100737.97;;;28.88;29.35
49055;BME280;35405;52.344;14.530;2023-07-13T10:18:21;100728.66;;;28.83;29.48
49055;BME280;35405;52.344;14.530;2023-07-13T10:20:47;100739.13;;;28.86;29.23
49055;BME280;35405;52.344;14.530;2023-07-13T10:23:15;100743.41;;;28.79;29.30
49055;BME280;35405;52.344;14.530;2023-07-13T10:25:45;100752.63;;;28.47;29.50
49055;BME280;35405;52.344;14.530;2023-07-13T10:28:30;100748.50;;;28.24;29.31
49055;BME280;35405;52.344;14.530;2023-07-13T10:30:58;100759.84;;;28.08;29.20
49055;BME280;35405;52.344;14.530;2023-07-13T10:33:24;100759.53;;;27.91;29.53
49055;BME280;35405;52.344;14.530;2023-07-13T10:35:49;100765.63;;;27.84;30.20
49055;BME280;35405;52.344;14.530;2023-07-13T10:38:22;100762.22;;;27.51;30.71
49055;BME280;35405;52.344;14.530;2023-07-13T10:43:22;100766.50;;;27.23;31.04
49055;BME280;35405;52.344;14.530;2023-07-13T10:45:50;100767.50;;;27.32;31.09
49055;BME280;35405;52.344;14.530;2023-07-13T10:48:16;100767.13;;;27.36;31.39
49055;BME280;35405;52.344;14.530;2023-07-13T10:50:43;100768.06;;;27.66;31.42
49055;BME280;35405;52.344;14.530;2023-07-13T10:53:20;100773.63;;;27.74;30.80
49055;BME280;35405;52.344;14.530;2023-07-13T10:58:20;100759.19;;;27.75;31.27
49055;BME280;35405;52.344;14.530;2023-07-13T11:01:00;100757.66;;;27.82;31.42
49055;BME280;35405;52.344;14.530;2023-07-13T11:03:27;100763.25;;;28.19;30.69
49055;BME280;35405;52.344;14.530;2023-07-13T11:06:03;100758.34;;;28.34;30.84
49055;BME280;35405;52.344;14.530;2023-07-13T11:10:55;100759.53;;;28.11;30.49
49055;BME280;35405;52.344;14.530;2023-07-13T11:16:01;100754.38;;;27.69;31.52
49055;BME280;35405;52.344;14.530;2023-07-13T11:18:37;100756.84;;;28.11;30.78
49055;BME280;35405;52.344;14.530;2023-07-13T11:23:41;100752.94;;;28.63;29.82
49055;BME280;35405;52.344;14.530;2023-07-13T11:26:37;100754.81;;;28.34;30.37
49055;BME280;35405;52.344;14.530;2023-07-13T11:28:52;100759.84;;;28.08;30.46
49055;BME280;35405;52.344;14.530;2023-07-13T11:31:17;100760.22;;;27.44;31.34
49055;BME280;35405;52.344;14.530;2023-07-13T11:33:51;100756.59;;;27.03;31.75
49055;BME280;35405;52.344;14.530;2023-07-13T11:36:17;100764.34;;;26.75;32.45
49055;BME280;35405;52.344;14.530;2023-07-13T11:38:57;100759.94;;;26.53;32.53
49055;BME280;35405;52.344;14.530;2023-07-13T11:41:25;100760.84;;;26.64;32.60
49055;BME280;35405;52.344;14.530;2023-07-13T11:43:54;100763.09;;;26.79;32.84
49055;BME280;35405;52.344;14.530;2023-07-13T11:48:45;100766.28;;;27.46;31.79
49055;BME280;35405;52.344;14.530;2023-07-13T11:51:14;100772.88;;;28.22;30.95
49055;BME280;35405;52.344;14.530;2023-07-13T11:53:44;100768.53;;;28.40;30.39
49055;BME280;35405;52.344;14.530;2023-07-13T11:56:10;100765.41;;;28.64;30.35
49055;BME280;35405;52.344;14.530;2023-07-13T11:58:35;100764.81;;;28.61;30.08
49055;BME280;35405;52.344;14.530;2023-07-13T12:01:01;100762.56;;;28.46;29.96
49055;BME280;35405;52.344;14.530;2023-07-13T12:03:29;100760.72;;;28.28;29.88
49055;BME280;35405;52.344;14.530;2023-07-13T12:05:56;100753.47;;;28.28;30.25
49055;BME280;35405;52.344;14.530;2023-07-13T12:08:22;100752.06;;;28.24;30.27
49055;BME280;35405;52.344;14.530;2023-07-13T12:10:47;100754.34;;;28.29;30.18
49055;BME280;35405;52.344;14.530;2023-07-13T12:13:12;100746.84;;;28.32;29.90
49055;BME280;35405;52.344;14.530;2023-07-13T12:15:40;100753.63;;;28.07;29.57
49055;BME280;35405;52.344;14.530;2023-07-13T12:20:40;100750.47;;;28.12;30.10
49055;BME280;35405;52.344;14.530;2023-07-13T12:23:19;100752.50;;;28.19;30.47
49055;BME280;35405;52.344;14.530;2023-07-13T12:25:45;100759.00;;;28.27;30.53
49055;BME280;35405;52.344;14.530;2023-07-13T12:28:20;100757.03;;;28.29;30.29
49055;BME280;35405;52.344;14.530;2023-07-13T12:30:47;100757.03;;;28.29;30.01
49055;BME280;35405;52.344;14.530;2023-07-13T12:33:13;100746.97;;;28.60;29.76
49055;BME280;35405;52.344;14.530;2023-07-13T12:35:48;100743.59;;;28.38;29.94
49055;BME280;35405;52.344;14.530;2023-07-13T12:38:15;100746.41;;;28.27;29.88
49055;BME280;35405;52.344;14.530;2023-07-13T12:40:41;100746.66;;;28.24;29.94
49055;BME280;35405;52.344;14.530;2023-07-13T12:43:10;100735.50;;;28.29;29.90
49055;BME280;35405;52.344;14.530;2023-07-13T12:45:36;100731.09;;;28.08;29.91
49055;BME280;35405;52.344;14.530;2023-07-13T12:48:04;100728.72;;;28.34;29.92
49055;BME280;35405;52.344;14.530;2023-07-13T12:50:40;100720.13;;;28.87;29.51
49055;BME280;35405;52.344;14.530;2023-07-13T12:53:06;100720.81;;;28.89;28.79
49055;BME280;35405;52.344;14.530;2023-07-13T12:55:41;100713.66;;;28.61;27.83
49055;BME280;35405;52.344;14.530;2023-07-13T12:58:09;100725.03;;;28.55;27.83
49055;BME280;35405;52.344;14.530;2023-07-13T13:00:41;100725.47;;;28.40;28.40
49055;BME280;35405;52.344;14.530;2023-07-13T13:03:31;100717.09;;;28.43;28.15
49055;BME280;35405;52.344;14.530;2023-07-13T13:06:40;100727.44;;;28.58;28.02
49055;BME280;35405;52.344;14.530;2023-07-13T13:08:57;100706.44;;;28.71;27.65
49055;BME280;35405;52.344;14.530;2023-07-13T13:11:24;100707.34;;;29.36;27.26
49055;BME280;35405;52.344;14.530;2023-07-13T13:13:50;100699.31;;;29.81;27.16
49055;BME280;35405;52.344;14.530;2023-07-13T13:16:35;100702.78;;;29.92;26.82
49055;BME280;35405;52.344;14.530;2023-07-13T13:19:05;100700.69;;;29.68;27.35
49055;BME280;35405;52.344;14.530;2023-07-13T13:21:35;100708.44;;;29.16;27.50
49055;BME280;35405;52.344;14.530;2023-07-13T13:24:00;100708.69;;;29.22;27.65
49055;BME280;35405;52.344;14.530;2023-07-13T13:26:26;100708.44;;;29.43;26.94
49055;BME280;35405;52.344;14.530;2023-07-13T13:28:51;100699.25;;;29.36;26.76
49055;BME280;35405;52.344;14.530;2023-07-13T13:31:16;100693.63;;;29.57;26.37
49055;BME280;35405;52.344;14.530;2023-07-13T13:33:42;100704.09;;;30.41;24.83
49055;BME280;35405;52.344;14.530;2023-07-13T13:36:29;100693.19;;;29.79;25.15
49055;BME280;35405;52.344;14.530;2023-07-13T13:38:54;100703.81;;;28.89;25.96
49055;BME280;35405;52.344;14.530;2023-07-13T13:41:19;100709.72;;;28.26;26.47
49055;BME280;35405;52.344;14.530;2023-07-13T13:43:44;100710.28;;;28.39;26.69
49055;BME280;35405;52.344;14.530;2023-07-13T13:46:14;100697.66;;;28.69;26.41
49055;BME280;35405;52.344;14.530;2023-07-13T13:48:40;100703.16;;;28.77;26.18
49055;BME280;35405;52.344;14.530;2023-07-13T13:51:12;100701.78;;;28.63;26.44
49055;BME280;35405;52.344;14.530;2023-07-13T13:53:38;100720.78;;;28.33;27.38
49055;BME280;35405;52.344;14.530;2023-07-13T13:56:04;100724.75;;;28.38;27.41
49055;BME280;35405;52.344;14.530;2023-07-13T13:58:29;100716.53;;;28.30;27.40
49055;BME280;35405;52.344;14.530;2023-07-13T14:00:55;100711.13;;;28.59;27.41
49055;BME280;35405;52.344;14.530;2023-07-13T14:03:21;100709.09;;;28.81;26.96
49055;BME280;35405;52.344;14.530;2023-07-13T14:05:47;100705.56;;;29.17;26.83
49055;BME280;35405;52.344;14.530;2023-07-13T14:08:16;100703.03;;;29.53;25.78
49055;BME280;35405;52.344;14.530;2023-07-13T14:10:42;100710.59;;;29.40;25.75
49055;BME280;35405;52.344;14.530;2023-07-13T14:13:13;100714.16;;;29.40;25.93
49055;BME280;35405;52.344;14.530;2023-07-13T14:15:41;100717.94;;;29.47;25.98
49055;BME280;35405;52.344;14.530;2023-07-13T14:18:07;100703.66;;;29.37;26.20
49055;BME280;35405;52.344;14.530;2023-07-13T14:20:33;100709.16;;;29.08;26.30
49055;BME280;35405;52.344;14.530;2023-07-13T14:22:58;100710.44;;;29.14;26.38
49055;BME280;35405;52.344;14.530;2023-07-13T14:25:24;100715.00;;;29.41;25.91
49055;BME280;35405;52.344;14.530;2023-07-13T14:27:51;100708.63;;;29.69;25.49
49055;BME280;35405;52.344;14.530;2023-07-13T14:30:19;100700.19;;;29.54;25.54
49055;BME280;35405;52.344;14.530;2023-07-13T14:32:45;100703.13;;;29.61;25.60
49055;BME280;35405;52.344;14.530;2023-07-13T14:35:11;100696.97;;;29.41;25.46
49055;BME280;35405;52.344;14.530;2023-07-13T14:37:37;100703.50;;;29.39;25.31
49055;BME280;35405;52.344;14.530;2023-07-13T14:40:04;100713.16;;;29.41;25.63
49055;BME280;35405;52.344;14.530;2023-07-13T14:42:30;100706.16;;;29.48;25.21
49055;BME280;35405;52.344;14.530;2023-07-13T14:44:55;100704.78;;;29.07;25.16
49055;BME280;35405;52.344;14.530;2023-07-13T14:47:20;100696.50;;;28.91;25.48
49055;BME280;35405;52.344;14.530;2023-07-13T14:49:45;100700.28;;;28.88;25.77
49055;BME280;35405;52.344;14.530;2023-07-13T14:52:17;100703.19;;;29.51;25.13
49055;BME280;35405;52.344;14.530;2023-07-13T14:54:43;100700.16;;;29.82;24.89
49055;BME280;35405;52.344;14.530;2023-07-13T14:57:13;100701.00;;;29.83;24.95
49055;BME280;35405;52.344;14.530;2023-07-13T14:59:40;100700.44;;;29.79;25.21
49055;BME280;35405;52.344;14.530;2023-07-13T15:04:49;100700.88;;;29.57;25.17
49055;BME280;35405;52.344;14.530;2023-07-13T15:07:14;100695.13;;;29.42;25.35
49055;BME280;35405;52.344;14.530;2023-07-13T15:09:40;100689.31;;;29.37;25.36
49055;BME280;35405;52.344;14.530;2023-07-13T15:12:06;100702.03;;;29.44;25.11
49055;BME280;35405;52.344;14.530;2023-07-13T15:14:31;100703.91;;;29.53;24.95
49055;BME280;35405;52.344;14.530;2023-07-13T15:16:57;100703.06;;;29.43;25.45
49055;BME280;35405;52.344;14.530;2023-07-13T15:19:22;100702.28;;;29.23;25.74
49055;BME280;35405;52.344;14.530;2023-07-13T15:21:48;100701.28;;;28.97;25.94
49055;BME280;35405;52.344;14.530;2023-07-13T15:24:14;100706.03;;;28.56;26.64
49055;BME280;35405;52.344;14.530;2023-07-13T15:26:40;100699.53;;;28.49;26.67
49055;BME280;35405;52.344;14.530;2023-07-13T15:29:08;100703.50;;;28.55;26.25
49055;BME280;35405;52.344;14.530;2023-07-13T15:31:33;100700.50;;;28.58;26.44
49055;BME280;35405;52.344;14.530;2023-07-13T15:34:04;100694.41;;;28.56;26.68
49055;BME280;35405;52.344;14.530;2023-07-13T15:36:29;100702.75;;;28.24;26.74
49055;BME280;35405;52.344;14.530;2023-07-13T15:38:55;100710.28;;;28.01;27.51
49055;BME280;35405;52.344;14.530;2023-07-13T15:43:48;100716.47;;;27.72;27.31
49055;BME280;35405;52.344;14.530;2023-07-13T15:46:13;100715.06;;;27.78;27.28
49055;BME280;35405;52.344;14.530;2023-07-13T15:48:39;100702.59;;;27.77;27.39
49055;BME280;35405;52.344;14.530;2023-07-13T15:51:04;100711.38;;;27.79;27.30
49055;BME280;35405;52.344;14.530;2023-07-13T15:53:34;100702.53;;;27.67;27.43
49055;BME280;35405;52.344;14.530;2023-07-13T15:56:01;100710.69;;;27.46;27.76
49055;BME280;35405;52.344;14.530;2023-07-13T15:58:27;100716.84;;;27.27;27.86
49055;BME280;35405;52.344;14.530;2023-07-13T16:00:53;100721.50;;;27.25;28.28
49055;BME280;35405;52.344;14.530;2023-07-13T16:03:19;100714.22;;;27.37;28.29
49055;BME280;35405;52.344;14.530;2023-07-13T16:05:45;100715.97;;;27.57;28.08
49055;BME280;35405;52.344;14.530;2023-07-13T16:08:19;100714.47;;;27.74;27.88
49055;BME280;35405;52.344;14.530;2023-07-13T16:10:45;100711.66;;;27.76;27.80
49055;BME280;35405;52.344;14.530;2023-07-13T16:13:14;100715.53;;;27.62;28.31
49055;BME280;35405;52.344;14.530;2023-07-13T16:15:40;100721.91;;;27.61;28.60
49055;BME280;35405;52.344;14.530;2023-07-13T16:18:10;100718.72;;;27.77;28.11
49055;BME280;35405;52.344;14.530;2023-07-13T16:20:35;100716.47;;;27.82;27.58
49055;BME280;35405;52.344;14.530;2023-07-13T16:23:00;100725.94;;;27.76;27.74
49055;BME280;35405;52.344;14.530;2023-07-13T16:25:28;100730.97;;;27.60;27.61
49055;BME280;35405;52.344;14.530;2023-07-13T16:27:55;100728.94;;;27.43;27.90
49055;BME280;35405;52.344;14.530;2023-07-13T16:30:25;100738.97;;;27.41;27.86
49055;BME280;35405;52.344;14.530;2023-07-13T16:32:55;100729.50;;;27.36;27.47
49055;BME280;35405;52.344;14.530;2023-07-13T16:35:21;100730.19;;;27.29;27.68
49055;BME280;35405;52.344;14.530;2023-07-13T16:37:47;100733.53;;;27.21;27.86
49055;BME280;35405;52.344;14.530;2023-07-13T16:40:20;100731.03;;;27.29;27.87
49055;BME280;35405;52.344;14.530;2023-07-13T16:42:46;100733.56;;;27.31;28.13
49055;BME280;35405;52.344;14.530;2023-07-13T16:45:12;100727.06;;;27.33;28.36
49055;BME280;35405;52.344;14.530;2023-07-13T16:47:37;100729.53;;;27.16;27.85
49055;BME280;35405;52.344;14.530;2023-07-13T16:50:09;100739.63;;;27.02;28.12
49055;BME280;35405;52.344;14.530;2023-07-13T16:52:38;100736.44;;;26.88;28.51
49055;BME280;35405;52.344;14.530;2023-07-13T16:55:03;100736.78;;;26.73;28.69
49055;BME280;35405;52.344;14.530;2023-07-13T16:57:31;100738.47;;;26.53;28.52
49055;BME280;35405;52.344;14.530;2023-07-13T16:59:58;100735.13;;;26.40;28.56
49055;BME280;35405;52.344;14.530;2023-07-13T17:04:50;100730.16;;;26.24;29.04
49055;BME280;35405;52.344;14.530;2023-07-13T17:07:15;100735.16;;;26.29;29.16
49055;BME280;35405;52.344;14.530;2023-07-13T17:09:46;100742.78;;;26.34;28.83
49055;BME280;35405;52.344;14.530;2023-07-13T17:12:12;100746.47;;;26.33;29.02
49055;BME280;35405;52.344;14.530;2023-07-13T17:14:37;100743.06;;;26.31;29.06
49055;BME280;35405;52.344;14.530;2023-07-13T17:17:04;100748.28;;;26.43;28.88
49055;BME280;35405;52.344;14.530;2023-07-13T17:19:35;100743.22;;;26.50;29.00
49055;BME280;35405;52.344;14.530;2023-07-13T17:22:00;100744.22;;;26.49;29.13
49055;BME280;35405;52.344;14.530;2023-07-13T17:24:30;100746.31;;;26.45;29.08
49055;BME280;35405;52.344;14.530;2023-07-13T17:26:58;100743.41;;;26.37;29.03
49055;BME280;35405;52.344;14.530;2023-07-13T17:29:23;100743.66;;;26.34;29.03
49055;BME280;35405;52.344;14.530;2023-07-13T17:31:49;100749.53;;;26.28;29.13
49055;BME280;35405;52.344;14.530;2023-07-13T17:34:16;100745.84;;;26.40;29.28
49055;BME280;35405;52.344;14.530;2023-07-13T17:36:43;100751.94;;;26.42;28.89
49055;BME280;35405;52.344;14.530;2023-07-13T17:39:18;100750.00;;;26.44;28.84
49055;BME280;35405;52.344;14.530;2023-07-13T17:41:44;100750.91;;;26.54;28.83
49055;BME280;35405;52.344;14.530;2023-07-13T17:44:10;100754.50;;;26.44;28.98
49055;BME280;35405;52.344;14.530;2023-07-13T17:46:36;100754.66;;;26.31;29.15
49055;BME280;35405;52.344;14.530;2023-07-13T17:49:01;100752.94;;;26.30;28.85
49055;BME280;35405;52.344;14.530;2023-07-13T17:51:26;100761.38;;;26.25;28.32
49055;BME280;35405;52.344;14.530;2023-07-13T17:53:52;100765.81;;;26.15;28.57
49055;BME280;35405;52.344;14.530;2023-07-13T17:56:17;100765.19;;;26.12;28.52
49055;BME280;35405;52.344;14.530;2023-07-13T17:58:43;100769.13;;;26.08;28.79
49055;BME280;35405;52.344;14.530;2023-07-13T18:01:09;100768.78;;;26.01;28.70
49055;BME280;35405;52.344;14.530;2023-07-13T18:03:37;100775.28;;;25.87;28.76
49055;BME280;35405;52.344;14.530;2023-07-13T18:06:10;100778.81;;;25.77;29.00
49055;BME280;35405;52.344;14.530;2023-07-13T18:08:42;100781.84;;;25.61;28.64
49055;BME280;35405;52.344;14.530;2023-07-13T18:11:08;100787.31;;;25.48;28.61
49055;BME280;35405;52.344;14.530;2023-07-13T18:13:33;100790.50;;;25.31;28.91
49055;BME280;35405;52.344;14.530;2023-07-13T18:16:04;100797.41;;;25.22;29.02
49055;BME280;35405;52.344;14.530;2023-07-13T18:18:30;100798.25;;;25.11;29.02
49055;BME280;35405;52.344;14.530;2023-07-13T18:20:58;100796.06;;;25.05;29.40
49055;BME280;35405;52.344;14.530;2023-07-13T18:23:24;100801.00;;;24.99;29.69